This is the latest recevied weather packets stored in our database for station/object N1MCJ. If no packets are shown the sender has not sent any weather packets the latest 10 day(s).
| Time | Temp. | Humidity | Pressure | Rain* | Wind** | Luminosity | Snow |
|---|---|---|---|---|---|---|---|
| 1777335691 | 12.78° C | 62% | 1015.7 hPa | 0 mm | - | 0 W/m² | - |
| 1777334788 | 13.33° C | 60% | 1015.4 hPa | 0 mm | - | 0 W/m² | - |
| 1777333887 | 13.89° C | 59% | 1015.3 hPa | 0 mm | - | 0 W/m² | - |
| 1777332985 | 14.44° C | 57% | 1015.3 hPa | 0 mm | - | 3 W/m² | - |
| 1777332081 | 15° C | 54% | 1015.2 hPa | 0 mm | - | 8 W/m² | - |
| 1777331180 | 15° C | 55% | 1015 hPa | 0 mm | - | 19 W/m² | - |
| 1777330276 | 16.11° C | 52% | 1014.8 hPa | 0 mm | - | 28 W/m² | - |
| 1777329377 | 17.22° C | 46% | 1015 hPa | 0 mm | - | 35 W/m² | - |
| 1777328474 | 18.33° C | 44% | 1014.9 hPa | 0 mm | - | 45 W/m² | - |
| 1777327575 | 18.89° C | 40% | 1014.7 hPa | 0 mm | - | 200 W/m² | - |
| 1777326672 | 18.33° C | 38% | 1015.1 hPa | 0 mm | - | 264 W/m² | - |
| 1777325770 | 19.44° C | 39% | 1014.8 hPa | 0 mm | - | 290 W/m² | - |
| 1777324868 | 19.44° C | 38% | 1014.6 hPa | 0 mm | - | 383 W/m² | - |
| 1777323967 | 20° C | 37% | 1014.9 hPa | 0 mm | - | 417 W/m² | - |
| 1777323065 | 19.44° C | 39% | 1014.8 hPa | 0 mm | - | 486 W/m² | - |
| 1777322162 | 18.89° C | 40% | 1014.6 hPa | 0 mm | - | 486 W/m² | - |
| 1777321259 | 19.44° C | 39% | 1014.4 hPa | 0 mm | - | 557 W/m² | - |
| 1777320357 | 20.56° C | 38% | 1014.2 hPa | 0 mm | - | 592 W/m² | - |
| 1777319453 | 18.89° C | 41% | 1014.2 hPa | 0 mm | - | 344 W/m² | - |
| 1777318550 | 19.44° C | 41% | 1014.1 hPa | 0 mm | - | 76 W/m² | - |
| 1777317646 | 21.11° C | 40% | 1014.4 hPa | 0 mm | - | 592 W/m² | - |
| 1777316743 | 20.56° C | 42% | 1014.5 hPa | 0 mm | - | 375 W/m² | - |
| 1777315840 | 20.56° C | 40% | 1014.5 hPa | 0 mm | - | 421 W/m² | - |
| 1777314938 | 20° C | 40% | 1014.4 hPa | 0 mm | - | 532 W/m² | - |
| 1777314035 | 20.56° C | 43% | 1014.7 hPa | 0 mm | - | 702 W/m² | - |
* Rain latest hour (hover to see other rain measurements)
** Current wind speed in m/s (hover to see current wind gust speed)